Thursday, July 31, 2014
01:26 UTC
  |  Log In   |  Register Free
Airport Search:

Owosso Community Airport
(KRNP)

Owosso Community Airport Diagram
No Airport Diagram Available

FAA data valid effective July 24, 2014 until September 18, 2014 (unless otherwise noted).

 
 
 
 
 
 
 
 
 
 
 
 
 
 

Current Aviation Weather for Owosso Community Airport (KRNP)

The most recent METAR observation for KRNP was updated at: 1834 UTC
METAR Summary (Translated METAR)
KRNP
281834Z AUTO 32009KT 10SM SCT027 SCT046 OVC060 17/12 A2996 RMK AO2 T01700116
KFNT
(17.4 nm SE from KRNP)
281753Z 36007KT 10SM SCT027 BKN050 OVC060 18/11 A2995 RMK AO2 SLP138 T01830111 10194 20161 51011
TAF Summary (Translated TAF)
KFNT
(17.4 nm SE from KRNP)
301739Z 3018/3118 32007KT P6SM SCT050 BKN250 FM302300 27005KT P6SM FEW050 SCT250 FM310800 24005KT P6SM BKN100
KLAN
(23.5 nm SW from KRNP)
301903Z 3019/3118 29009KT P6SM VCTS BKN040CB FM302100 29009KT P6SM VCSH BKN040 FM302300 VRB05KT P6SM SCT080 FM311600 23009KT P6SM VCSH SCT040
  Airport Weather Conditions for KRNP

 Current Weather at RNP
63° F
Partly Cloudy
North winds at 0.0 mph
RNP NOAA Radar

Pressure: 29.97 in
Humidity: 88%
Wind: Calm
Dew Point: 59.5°F
Visibility: 10.00 mi


Airport Weather Forecast for KRNP

Translated METAR and TAF for KRNP
Translated METAR for KRNP (0119 UTC 31 July 2014)
found at http://aviationweather.gov/adds/metars/
 
METAR text: KRNP 310114Z AUTO 19003KT 10SM SCT070 17/16 A2997 RMK AO2 T01650155
Conditions at: KRNP (OWOSSO , MI, US) observed 0114 UTC 31 July 2014
Temperature: 16.5°C (62°F)
Dewpoint: 15.5°C (60°F) [RH = 94%]
Pressure (altimeter): 29.97 inches Hg (1015.0 mb)
Winds: from the S (190 degrees) at 3 MPH (3 knots; 1.6 m/s)
Visibility: 10 or more miles (16+ km)
Ceiling: at least 12,000 feet AGL
Clouds: scattered clouds at 7000 feet AGL
Weather: automated observation with no human augmentation;
there may or may not be significant weather present at this time
Translated TAF for KRNP

There is no translated TAF available for this airport

Find All Airport Services Find A Hotel Find A Rental Car Find A Golf Course Find A Restaurant $100 Hamburger



FBO's on the Field
FBO Company Facility Photos Services Transportation Aviation Fuel Prices: Prices include tax
Catering Weather Repair Courtesy Rental Type 100LL JetA JetA+ MOGAS 8087
 
Owosso Community Airport

This FBO has not yet been rated
FS:Avfuel
Last Updated: Jul-09
Login to update fuel prices
SS:
Contact Owosso Community AirportMore FBO Information
 
Add another FBO Facility Photos Catering Weather Repair Courtesy Rental Type 100LL JetA JetA+ MOGAS 8087
Services Transportation Aviation Fuel Prices: Prices include tax


GlobalAir.com Airport Resource Center model-print
model-print
model-print
model-print